sensor_id;sensor_type;location;lat;lon;timestamp;temperature;humidity
62583;DHT22;48641;51.676;5.808;2022-09-21T00:00:38;19.60;57.10
62583;DHT22;48641;51.676;5.808;2022-09-21T00:03:04;19.50;57.00
62583;DHT22;48641;51.676;5.808;2022-09-21T00:05:31;19.50;57.00
62583;DHT22;48641;51.676;5.808;2022-09-21T00:08:01;19.60;57.10
62583;DHT22;48641;51.676;5.808;2022-09-21T00:10:27;19.60;57.10
62583;DHT22;48641;51.676;5.808;2022-09-21T00:12:53;19.50;57.00
62583;DHT22;48641;51.676;5.808;2022-09-21T00:15:19;19.50;57.00
62583;DHT22;48641;51.676;5.808;2022-09-21T00:17:46;19.60;57.20
62583;DHT22;48641;51.676;5.808;2022-09-21T00:20:12;19.50;57.10
62583;DHT22;48641;51.676;5.808;2022-09-21T00:22:38;19.50;57.10
62583;DHT22;48641;51.676;5.808;2022-09-21T00:25:05;19.50;57.10
62583;DHT22;48641;51.676;5.808;2022-09-21T00:27:31;19.50;57.10
62583;DHT22;48641;51.676;5.808;2022-09-21T00:29:57;19.50;57.10
62583;DHT22;48641;51.676;5.808;2022-09-21T00:32:25;19.50;57.10
62583;DHT22;48641;51.676;5.808;2022-09-21T00:34:51;19.50;57.10
62583;DHT22;48641;51.676;5.808;2022-09-21T00:37:18;19.50;57.20
62583;DHT22;48641;51.676;5.808;2022-09-21T00:39:44;19.50;57.20
62583;DHT22;48641;51.676;5.808;2022-09-21T00:42:23;19.50;57.10
62583;DHT22;48641;51.676;5.808;2022-09-21T00:44:49;19.50;57.20
62583;DHT22;48641;51.676;5.808;2022-09-21T00:47:25;19.40;57.20
62583;DHT22;48641;51.676;5.808;2022-09-21T00:49:54;19.50;57.20
62583;DHT22;48641;51.676;5.808;2022-09-21T00:52:23;19.50;57.30
62583;DHT22;48641;51.676;5.808;2022-09-21T00:54:53;19.50;57.30
62583;DHT22;48641;51.676;5.808;2022-09-21T00:57:21;19.40;57.30
62583;DHT22;48641;51.676;5.808;2022-09-21T00:59:50;19.50;57.30
62583;DHT22;48641;51.676;5.808;2022-09-21T01:02:18;19.40;57.30
62583;DHT22;48641;51.676;5.808;2022-09-21T01:04:44;19.40;57.30
62583;DHT22;48641;51.676;5.808;2022-09-21T01:07:13;19.40;57.30
62583;DHT22;48641;51.676;5.808;2022-09-21T01:09:42;19.40;58.30
62583;DHT22;48641;51.676;5.808;2022-09-21T01:12:34;19.40;57.30
62583;DHT22;48641;51.676;5.808;2022-09-21T01:15:22;19.40;57.20
62583;DHT22;48641;51.676;5.808;2022-09-21T01:17:50;19.40;57.30
62583;DHT22;48641;51.676;5.808;2022-09-21T01:20:46;19.40;57.30
62583;DHT22;48641;51.676;5.808;2022-09-21T01:31:30;19.30;57.40
62583;DHT22;48641;51.676;5.808;2022-09-21T01:34:03;19.40;57.50
62583;DHT22;48641;51.676;5.808;2022-09-21T01:36:30;19.30;57.40
62583;DHT22;48641;51.676;5.808;2022-09-21T01:39:08;19.30;57.40
62583;DHT22;48641;51.676;5.808;2022-09-21T01:41:36;19.40;57.40
62583;DHT22;48641;51.676;5.808;2022-09-21T01:44:11;19.30;57.40
62583;DHT22;48641;51.676;5.808;2022-09-21T01:46:38;19.30;57.40
62583;DHT22;48641;51.676;5.808;2022-09-21T01:49:12;19.30;57.40
62583;DHT22;48641;51.676;5.808;2022-09-21T01:51:45;19.30;57.30
62583;DHT22;48641;51.676;5.808;2022-09-21T01:54:20;19.30;57.40
62583;DHT22;48641;51.676;5.808;2022-09-21T01:56:58;19.30;57.40
62583;DHT22;48641;51.676;5.808;2022-09-21T01:59:45;19.30;57.30
62583;DHT22;48641;51.676;5.808;2022-09-21T02:02:18;19.30;57.40
62583;DHT22;48641;51.676;5.808;2022-09-21T02:04:45;19.30;57.40
62583;DHT22;48641;51.676;5.808;2022-09-21T02:07:11;19.30;57.40
62583;DHT22;48641;51.676;5.808;2022-09-21T02:09:36;19.30;57.40
62583;DHT22;48641;51.676;5.808;2022-09-21T02:12:03;19.30;57.40
62583;DHT22;48641;51.676;5.808;2022-09-21T02:14:30;19.30;57.40
62583;DHT22;48641;51.676;5.808;2022-09-21T02:17:22;19.30;57.40
62583;DHT22;48641;51.676;5.808;2022-09-21T02:20:27;19.30;57.30
62583;DHT22;48641;51.676;5.808;2022-09-21T02:23:23;19.30;57.30
62583;DHT22;48641;51.676;5.808;2022-09-21T02:29:11;19.20;57.50
62583;DHT22;48641;51.676;5.808;2022-09-21T02:32:07;19.20;57.40
62583;DHT22;48641;51.676;5.808;2022-09-21T02:34:57;19.20;57.40
62583;DHT22;48641;51.676;5.808;2022-09-21T02:40:17;19.20;57.50
62583;DHT22;48641;51.676;5.808;2022-09-21T02:42:54;19.20;57.50
62583;DHT22;48641;51.676;5.808;2022-09-21T02:45:27;19.20;57.60
62583;DHT22;48641;51.676;5.808;2022-09-21T02:48:04;19.20;57.60
62583;DHT22;48641;51.676;5.808;2022-09-21T02:50:45;19.20;57.50
62583;DHT22;48641;51.676;5.808;2022-09-21T02:53:12;19.20;57.50
62583;DHT22;48641;51.676;5.808;2022-09-21T02:55:40;19.20;57.60
62583;DHT22;48641;51.676;5.808;2022-09-21T02:58:09;19.20;57.50
62583;DHT22;48641;51.676;5.808;2022-09-21T03:00:36;19.20;57.50
62583;DHT22;48641;51.676;5.808;2022-09-21T03:03:17;19.20;57.50
62583;DHT22;48641;51.676;5.808;2022-09-21T03:05:45;19.20;57.40
62583;DHT22;48641;51.676;5.808;2022-09-21T03:08:12;19.20;57.50
62583;DHT22;48641;51.676;5.808;2022-09-21T03:10:38;19.20;57.50
62583;DHT22;48641;51.676;5.808;2022-09-21T03:13:06;19.10;57.70
62583;DHT22;48641;51.676;5.808;2022-09-21T03:15:34;19.10;57.70
62583;DHT22;48641;51.676;5.808;2022-09-21T03:18:00;19.10;57.70
62583;DHT22;48641;51.676;5.808;2022-09-21T03:20:26;19.10;57.70
62583;DHT22;48641;51.676;5.808;2022-09-21T03:22:51;19.10;57.60
62583;DHT22;48641;51.676;5.808;2022-09-21T03:25:17;19.10;57.50
62583;DHT22;48641;51.676;5.808;2022-09-21T03:27:42;19.10;57.50
62583;DHT22;48641;51.676;5.808;2022-09-21T03:30:09;19.10;57.50
62583;DHT22;48641;51.676;5.808;2022-09-21T03:32:35;19.10;57.50
62583;DHT22;48641;51.676;5.808;2022-09-21T03:35:00;19.10;57.50
62583;DHT22;48641;51.676;5.808;2022-09-21T03:37:26;19.10;57.50
62583;DHT22;48641;51.676;5.808;2022-09-21T03:39:52;19.20;57.50
62583;DHT22;48641;51.676;5.808;2022-09-21T03:42:17;19.10;57.50
62583;DHT22;48641;51.676;5.808;2022-09-21T03:44:43;19.10;57.50
62583;DHT22;48641;51.676;5.808;2022-09-21T03:47:08;19.10;57.50
62583;DHT22;48641;51.676;5.808;2022-09-21T03:49:34;19.10;57.40
62583;DHT22;48641;51.676;5.808;2022-09-21T03:52:00;19.10;57.50
62583;DHT22;48641;51.676;5.808;2022-09-21T03:54:25;19.10;57.40
62583;DHT22;48641;51.676;5.808;2022-09-21T03:56:51;19.10;57.40
62583;DHT22;48641;51.676;5.808;2022-09-21T03:59:17;19.10;57.40
62583;DHT22;48641;51.676;5.808;2022-09-21T04:01:42;19.10;57.40
62583;DHT22;48641;51.676;5.808;2022-09-21T04:04:08;19.10;57.40
62583;DHT22;48641;51.676;5.808;2022-09-21T04:06:35;19.10;57.40
62583;DHT22;48641;51.676;5.808;2022-09-21T04:09:01;19.10;57.40
62583;DHT22;48641;51.676;5.808;2022-09-21T04:11:27;19.10;57.40
62583;DHT22;48641;51.676;5.808;2022-09-21T04:13:54;19.10;57.40
62583;DHT22;48641;51.676;5.808;2022-09-21T04:16:23;19.10;57.40
62583;DHT22;48641;51.676;5.808;2022-09-21T04:18:50;19.10;57.40
62583;DHT22;48641;51.676;5.808;2022-09-21T04:21:19;19.00;57.40
62583;DHT22;48641;51.676;5.808;2022-09-21T04:23:46;19.00;57.40
62583;DHT22;48641;51.676;5.808;2022-09-21T04:26:38;19.10;57.40
62583;DHT22;48641;51.676;5.808;2022-09-21T04:29:05;19.10;57.30
62583;DHT22;48641;51.676;5.808;2022-09-21T04:31:32;19.00;57.40
62583;DHT22;48641;51.676;5.808;2022-09-21T04:33:58;19.00;58.40
62583;DHT22;48641;51.676;5.808;2022-09-21T04:36:24;19.00;57.40
62583;DHT22;48641;51.676;5.808;2022-09-21T04:38:50;19.00;57.40
62583;DHT22;48641;51.676;5.808;2022-09-21T04:41:17;19.00;57.40
62583;DHT22;48641;51.676;5.808;2022-09-21T04:43:44;19.00;57.40
62583;DHT22;48641;51.676;5.808;2022-09-21T04:46:13;19.00;57.30
62583;DHT22;48641;51.676;5.808;2022-09-21T04:48:39;19.00;57.30
62583;DHT22;48641;51.676;5.808;2022-09-21T04:51:05;19.00;57.40
62583;DHT22;48641;51.676;5.808;2022-09-21T04:53:32;19.00;57.40
62583;DHT22;48641;51.676;5.808;2022-09-21T04:55:58;19.00;57.30
62583;DHT22;48641;51.676;5.808;2022-09-21T04:58:23;19.00;57.40
62583;DHT22;48641;51.676;5.808;2022-09-21T05:00:50;19.00;57.30
62583;DHT22;48641;51.676;5.808;2022-09-21T05:03:17;19.00;57.40
62583;DHT22;48641;51.676;5.808;2022-09-21T05:05:50;18.90;57.30
62583;DHT22;48641;51.676;5.808;2022-09-21T05:08:16;19.00;57.40
62583;DHT22;48641;51.676;5.808;2022-09-21T05:10:43;18.90;57.40
62583;DHT22;48641;51.676;5.808;2022-09-21T05:13:09;18.90;57.30
62583;DHT22;48641;51.676;5.808;2022-09-21T05:15:36;18.90;57.30
62583;DHT22;48641;51.676;5.808;2022-09-21T05:18:03;18.90;58.30
62583;DHT22;48641;51.676;5.808;2022-09-21T05:20:29;18.90;57.30
62583;DHT22;48641;51.676;5.808;2022-09-21T05:22:54;18.90;57.40
62583;DHT22;48641;51.676;5.808;2022-09-21T05:25:20;18.90;57.40
62583;DHT22;48641;51.676;5.808;2022-09-21T05:27:45;18.90;57.30
62583;DHT22;48641;51.676;5.808;2022-09-21T05:30:12;18.90;57.40
62583;DHT22;48641;51.676;5.808;2022-09-21T05:32:55;18.90;57.40
62583;DHT22;48641;51.676;5.808;2022-09-21T05:35:40;18.90;57.30
62583;DHT22;48641;51.676;5.808;2022-09-21T05:38:17;18.90;57.30
62583;DHT22;48641;51.676;5.808;2022-09-21T05:40:44;18.90;57.30
62583;DHT22;48641;51.676;5.808;2022-09-21T05:43:12;18.90;57.40
62583;DHT22;48641;51.676;5.808;2022-09-21T05:45:42;18.90;57.40
62583;DHT22;48641;51.676;5.808;2022-09-21T05:48:18;18.80;57.30
62583;DHT22;48641;51.676;5.808;2022-09-21T05:51:01;18.90;57.30
62583;DHT22;48641;51.676;5.808;2022-09-21T05:59:00;18.80;57.40
62583;DHT22;48641;51.676;5.808;2022-09-21T06:01:40;18.70;57.60
62583;DHT22;48641;51.676;5.808;2022-09-21T06:04:11;18.70;57.80
62583;DHT22;48641;51.676;5.808;2022-09-21T06:06:39;18.70;57.70
62583;DHT22;48641;51.676;5.808;2022-09-21T06:09:05;18.70;57.60
62583;DHT22;48641;51.676;5.808;2022-09-21T06:11:31;18.70;57.60
62583;DHT22;48641;51.676;5.808;2022-09-21T06:13:56;18.70;57.60
62583;DHT22;48641;51.676;5.808;2022-09-21T06:16:22;18.70;57.60
62583;DHT22;48641;51.676;5.808;2022-09-21T06:18:47;18.70;57.60
62583;DHT22;48641;51.676;5.808;2022-09-21T06:21:13;18.70;57.60
62583;DHT22;48641;51.676;5.808;2022-09-21T06:23:39;18.70;57.50
62583;DHT22;48641;51.676;5.808;2022-09-21T06:26:04;18.70;57.40
62583;DHT22;48641;51.676;5.808;2022-09-21T06:28:30;18.70;57.40
62583;DHT22;48641;51.676;5.808;2022-09-21T06:30:56;18.70;57.40
62583;DHT22;48641;51.676;5.808;2022-09-21T06:33:23;18.70;57.40
62583;DHT22;48641;51.676;5.808;2022-09-21T06:35:56;18.70;57.40
62583;DHT22;48641;51.676;5.808;2022-09-21T06:38:23;18.70;57.40
62583;DHT22;48641;51.676;5.808;2022-09-21T06:40:50;18.70;57.50
62583;DHT22;48641;51.676;5.808;2022-09-21T06:43:16;18.70;57.50
62583;DHT22;48641;51.676;5.808;2022-09-21T06:45:42;18.70;57.50
62583;DHT22;48641;51.676;5.808;2022-09-21T06:48:08;18.60;57.50
62583;DHT22;48641;51.676;5.808;2022-09-21T06:50:33;18.60;57.60
62583;DHT22;48641;51.676;5.808;2022-09-21T06:53:00;18.60;57.60
62583;DHT22;48641;51.676;5.808;2022-09-21T06:55:27;18.60;57.80
62583;DHT22;48641;51.676;5.808;2022-09-21T06:57:59;18.60;57.90
62583;DHT22;48641;51.676;5.808;2022-09-21T07:00:26;18.60;57.90
62583;DHT22;48641;51.676;5.808;2022-09-21T07:02:51;18.60;58.00
62583;DHT22;48641;51.676;5.808;2022-09-21T07:05:17;18.60;58.10
62583;DHT22;48641;51.676;5.808;2022-09-21T07:07:42;18.60;58.20
62583;DHT22;48641;51.676;5.808;2022-09-21T07:10:08;18.60;58.30
62583;DHT22;48641;51.676;5.808;2022-09-21T07:12:34;18.60;58.30
62583;DHT22;48641;51.676;5.808;2022-09-21T07:15:01;18.70;57.70
62583;DHT22;48641;51.676;5.808;2022-09-21T07:17:31;18.60;56.60
62583;DHT22;48641;51.676;5.808;2022-09-21T07:19:57;18.50;56.10
62583;DHT22;48641;51.676;5.808;2022-09-21T07:22:22;18.50;56.10
62583;DHT22;48641;51.676;5.808;2022-09-21T07:24:48;18.50;55.90
62583;DHT22;48641;51.676;5.808;2022-09-21T07:27:14;18.40;55.80
62583;DHT22;48641;51.676;5.808;2022-09-21T07:29:39;18.40;55.70
62583;DHT22;48641;51.676;5.808;2022-09-21T07:32:05;18.40;55.80
62583;DHT22;48641;51.676;5.808;2022-09-21T07:34:34;18.40;55.90
62583;DHT22;48641;51.676;5.808;2022-09-21T07:37:01;18.40;55.90
62583;DHT22;48641;51.676;5.808;2022-09-21T07:39:26;18.30;55.90
62583;DHT22;48641;51.676;5.808;2022-09-21T07:41:52;18.30;56.10
62583;DHT22;48641;51.676;5.808;2022-09-21T07:44:18;18.30;56.50
62583;DHT22;48641;51.676;5.808;2022-09-21T07:46:47;18.30;56.50
62583;DHT22;48641;51.676;5.808;2022-09-21T07:49:13;18.20;56.50
62583;DHT22;48641;51.676;5.808;2022-09-21T07:51:38;18.30;56.50
62583;DHT22;48641;51.676;5.808;2022-09-21T07:54:04;18.20;56.40
62583;DHT22;48641;51.676;5.808;2022-09-21T07:56:30;18.20;56.40
62583;DHT22;48641;51.676;5.808;2022-09-21T07:58:55;18.20;56.50
62583;DHT22;48641;51.676;5.808;2022-09-21T08:01:32;18.10;56.60
62583;DHT22;48641;51.676;5.808;2022-09-21T08:03:58;18.20;56.70
62583;DHT22;48641;51.676;5.808;2022-09-21T08:06:26;18.10;56.80
62583;DHT22;48641;51.676;5.808;2022-09-21T08:08:52;18.20;56.90
62583;DHT22;48641;51.676;5.808;2022-09-21T08:11:19;18.20;57.00
62583;DHT22;48641;51.676;5.808;2022-09-21T08:13:52;18.10;57.10
62583;DHT22;48641;51.676;5.808;2022-09-21T08:16:17;18.10;57.20
62583;DHT22;48641;51.676;5.808;2022-09-21T08:18:43;18.10;57.10
62583;DHT22;48641;51.676;5.808;2022-09-21T08:21:09;18.10;57.40
62583;DHT22;48641;51.676;5.808;2022-09-21T08:23:35;18.10;57.40
62583;DHT22;48641;51.676;5.808;2022-09-21T08:26:06;18.10;57.40
62583;DHT22;48641;51.676;5.808;2022-09-21T08:28:32;18.10;57.40
62583;DHT22;48641;51.676;5.808;2022-09-21T08:31:08;18.10;57.40
62583;DHT22;48641;51.676;5.808;2022-09-21T08:33:34;18.20;57.30
62583;DHT22;48641;51.676;5.808;2022-09-21T08:36:01;18.10;57.50
62583;DHT22;48641;51.676;5.808;2022-09-21T08:38:32;18.10;57.60
62583;DHT22;48641;51.676;5.808;2022-09-21T08:41:00;18.20;57.90
62583;DHT22;48641;51.676;5.808;2022-09-21T08:45:51;18.10;58.00
62583;DHT22;48641;51.676;5.808;2022-09-21T08:48:21;18.20;58.10
62583;DHT22;48641;51.676;5.808;2022-09-21T08:50:53;18.20;58.20
62583;DHT22;48641;51.676;5.808;2022-09-21T08:55:58;18.30;58.20
62583;DHT22;48641;51.676;5.808;2022-09-21T08:58:28;18.30;58.20
62583;DHT22;48641;51.676;5.808;2022-09-21T09:06:53;18.40;58.20
62583;DHT22;48641;51.676;5.808;2022-09-21T09:12:17;18.40;59.20
62583;DHT22;48641;51.676;5.808;2022-09-21T09:17:54;18.50;58.10
62583;DHT22;48641;51.676;5.808;2022-09-21T09:20:29;18.40;58.10
62583;DHT22;48641;51.676;5.808;2022-09-21T09:25:36;18.50;58.10
62583;DHT22;48641;51.676;5.808;2022-09-21T09:28:28;18.50;58.00
62583;DHT22;48641;51.676;5.808;2022-09-21T09:31:20;18.60;58.00
62583;DHT22;48641;51.676;5.808;2022-09-21T09:36:30;18.50;58.00
62583;DHT22;48641;51.676;5.808;2022-09-21T09:39:00;18.60;58.00
62583;DHT22;48641;51.676;5.808;2022-09-21T09:41:59;18.60;58.00
62583;DHT22;48641;51.676;5.808;2022-09-21T09:50:26;18.60;57.90
62583;DHT22;48641;51.676;5.808;2022-09-21T09:53:05;18.60;57.90
62583;DHT22;48641;51.676;5.808;2022-09-21T09:56:02;18.60;57.90
62583;DHT22;48641;51.676;5.808;2022-09-21T09:58:48;18.60;57.80
62583;DHT22;48641;51.676;5.808;2022-09-21T10:01:40;18.70;58.00
62583;DHT22;48641;51.676;5.808;2022-09-21T10:04:14;18.70;57.90
62583;DHT22;48641;51.676;5.808;2022-09-21T10:06:42;18.70;58.30
62583;DHT22;48641;51.676;5.808;2022-09-21T10:11:49;18.70;57.20
62583;DHT22;48641;51.676;5.808;2022-09-21T10:14:21;18.70;56.90
62583;DHT22;48641;51.676;5.808;2022-09-21T10:16:52;18.70;56.50
62583;DHT22;48641;51.676;5.808;2022-09-21T10:19:24;18.70;56.10
62583;DHT22;48641;51.676;5.808;2022-09-21T10:21:57;18.70;57.20
62583;DHT22;48641;51.676;5.808;2022-09-21T10:24:26;18.80;57.40
62583;DHT22;48641;51.676;5.808;2022-09-21T10:27:13;18.80;58.30
62583;DHT22;48641;51.676;5.808;2022-09-21T10:29:46;18.90;58.60
62583;DHT22;48641;51.676;5.808;2022-09-21T10:32:23;18.80;56.90
62583;DHT22;48641;51.676;5.808;2022-09-21T10:37:35;18.80;56.20
62583;DHT22;48641;51.676;5.808;2022-09-21T10:42:51;18.90;56.00
62583;DHT22;48641;51.676;5.808;2022-09-21T10:45:25;18.90;56.00
62583;DHT22;48641;51.676;5.808;2022-09-21T10:47:57;18.90;55.90
62583;DHT22;48641;51.676;5.808;2022-09-21T10:50:38;18.90;55.60
62583;DHT22;48641;51.676;5.808;2022-09-21T10:53:18;18.90;55.10
62583;DHT22;48641;51.676;5.808;2022-09-21T10:55:57;18.90;55.00
62583;DHT22;48641;51.676;5.808;2022-09-21T10:58:24;18.90;54.60
62583;DHT22;48641;51.676;5.808;2022-09-21T11:00:51;18.90;54.50
62583;DHT22;48641;51.676;5.808;2022-09-21T11:06:23;19.00;54.00
62583;DHT22;48641;51.676;5.808;2022-09-21T11:11:45;19.00;54.20
62583;DHT22;48641;51.676;5.808;2022-09-21T11:14:58;19.00;53.50
62583;DHT22;48641;51.676;5.808;2022-09-21T11:20:07;19.00;53.60
62583;DHT22;48641;51.676;5.808;2022-09-21T11:27:59;19.10;52.40
62583;DHT22;48641;51.676;5.808;2022-09-21T11:30:35;19.00;52.70
62583;DHT22;48641;51.676;5.808;2022-09-21T11:46:51;19.00;52.80
62583;DHT22;48641;51.676;5.808;2022-09-21T11:54:54;19.10;51.90
62583;DHT22;48641;51.676;5.808;2022-09-21T12:05:35;19.20;51.50
62583;DHT22;48641;51.676;5.808;2022-09-21T12:08:13;19.10;51.50
62583;DHT22;48641;51.676;5.808;2022-09-21T12:14:11;19.10;51.50
62583;DHT22;48641;51.676;5.808;2022-09-21T12:22:21;19.20;50.30
62583;DHT22;48641;51.676;5.808;2022-09-21T12:24:50;19.30;50.90
62583;DHT22;48641;51.676;5.808;2022-09-21T12:29:55;19.20;50.80
62583;DHT22;48641;51.676;5.808;2022-09-21T12:32:53;19.30;50.30
62583;DHT22;48641;51.676;5.808;2022-09-21T12:38:08;19.40;49.70
62583;DHT22;48641;51.676;5.808;2022-09-21T12:40:44;19.40;50.00
62583;DHT22;48641;51.676;5.808;2022-09-21T12:43:44;19.50;50.40
62583;DHT22;48641;51.676;5.808;2022-09-21T12:46:47;19.50;50.50
62583;DHT22;48641;51.676;5.808;2022-09-21T12:49:28;19.50;50.80
62583;DHT22;48641;51.676;5.808;2022-09-21T12:51:59;19.60;51.10
62583;DHT22;48641;51.676;5.808;2022-09-21T12:55:23;19.60;51.30
62583;DHT22;48641;51.676;5.808;2022-09-21T13:00:28;19.70;51.50
62583;DHT22;48641;51.676;5.808;2022-09-21T13:03:18;19.70;51.70
62583;DHT22;48641;51.676;5.808;2022-09-21T13:08:42;19.70;51.80
62583;DHT22;48641;51.676;5.808;2022-09-21T13:11:09;19.80;52.00
62583;DHT22;48641;51.676;5.808;2022-09-21T13:13:58;19.80;52.10
62583;DHT22;48641;51.676;5.808;2022-09-21T13:16:25;19.80;52.00
62583;DHT22;48641;51.676;5.808;2022-09-21T13:19:00;19.80;52.20
62583;DHT22;48641;51.676;5.808;2022-09-21T13:21:28;19.90;52.20
62583;DHT22;48641;51.676;5.808;2022-09-21T13:24:06;19.90;52.30
62583;DHT22;48641;51.676;5.808;2022-09-21T13:26:39;19.90;52.30
62583;DHT22;48641;51.676;5.808;2022-09-21T13:29:26;19.90;52.30
62583;DHT22;48641;51.676;5.808;2022-09-21T13:34:37;19.90;52.50
62583;DHT22;48641;51.676;5.808;2022-09-21T13:47:40;20.00;50.30
62583;DHT22;48641;51.676;5.808;2022-09-21T13:50:21;20.00;49.70
62583;DHT22;48641;51.676;5.808;2022-09-21T13:52:54;20.10;50.30
62583;DHT22;48641;51.676;5.808;2022-09-21T13:55:36;20.00;49.30
62583;DHT22;48641;51.676;5.808;2022-09-21T13:58:06;20.10;49.80
62583;DHT22;48641;51.676;5.808;2022-09-21T14:00:51;20.10;49.20
62583;DHT22;48641;51.676;5.808;2022-09-21T14:03:24;20.10;48.70
62583;DHT22;48641;51.676;5.808;2022-09-21T14:05:54;20.10;48.30
62583;DHT22;48641;51.676;5.808;2022-09-21T14:08:33;20.10;48.30
62583;DHT22;48641;51.676;5.808;2022-09-21T14:13:45;20.10;47.40
62583;DHT22;48641;51.676;5.808;2022-09-21T14:24:45;20.10;47.10
62583;DHT22;48641;51.676;5.808;2022-09-21T14:27:35;20.10;47.00
62583;DHT22;48641;51.676;5.808;2022-09-21T14:35:21;20.10;46.90
62583;DHT22;48641;51.676;5.808;2022-09-21T14:37:57;20.10;46.80
62583;DHT22;48641;51.676;5.808;2022-09-21T14:40:26;20.10;46.80
62583;DHT22;48641;51.676;5.808;2022-09-21T14:42:54;20.10;47.00
62583;DHT22;48641;51.676;5.808;2022-09-21T14:45:28;20.10;47.10
62583;DHT22;48641;51.676;5.808;2022-09-21T14:48:12;20.10;47.10
62583;DHT22;48641;51.676;5.808;2022-09-21T14:50:45;20.10;47.50
62583;DHT22;48641;51.676;5.808;2022-09-21T14:56:21;20.10;47.90
62583;DHT22;48641;51.676;5.808;2022-09-21T15:04:17;20.10;48.60
62583;DHT22;48641;51.676;5.808;2022-09-21T15:12:40;20.10;49.00
62583;DHT22;48641;51.676;5.808;2022-09-21T15:15:30;20.20;49.00
62583;DHT22;48641;51.676;5.808;2022-09-21T15:17:59;20.20;49.00
62583;DHT22;48641;51.676;5.808;2022-09-21T15:20:28;20.20;49.20
62583;DHT22;48641;51.676;5.808;2022-09-21T15:22:56;20.20;49.30
62583;DHT22;48641;51.676;5.808;2022-09-21T15:25:24;20.20;49.40
62583;DHT22;48641;51.676;5.808;2022-09-21T15:27:51;20.20;49.40
62583;DHT22;48641;51.676;5.808;2022-09-21T15:30:27;20.20;49.40
62583;DHT22;48641;51.676;5.808;2022-09-21T15:32:56;20.20;49.40
62583;DHT22;48641;51.676;5.808;2022-09-21T15:35:25;20.20;49.50
62583;DHT22;48641;51.676;5.808;2022-09-21T15:37:52;20.20;49.60
62583;DHT22;48641;51.676;5.808;2022-09-21T15:40:21;20.20;49.60
62583;DHT22;48641;51.676;5.808;2022-09-21T15:46:01;20.20;49.60
62583;DHT22;48641;51.676;5.808;2022-09-21T15:48:32;20.20;49.80
62583;DHT22;48641;51.676;5.808;2022-09-21T15:53:36;20.20;49.90
62583;DHT22;48641;51.676;5.808;2022-09-21T15:56:04;20.20;50.00
62583;DHT22;48641;51.676;5.808;2022-09-21T15:58:33;20.20;50.10
62583;DHT22;48641;51.676;5.808;2022-09-21T16:01:07;20.20;50.10
62583;DHT22;48641;51.676;5.808;2022-09-21T16:03:33;20.20;50.10
62583;DHT22;48641;51.676;5.808;2022-09-21T16:06:34;20.20;50.10
62583;DHT22;48641;51.676;5.808;2022-09-21T16:11:48;20.20;50.10
62583;DHT22;48641;51.676;5.808;2022-09-21T16:14:15;20.10;50.10
62583;DHT22;48641;51.676;5.808;2022-09-21T16:22:35;20.20;50.10
62583;DHT22;48641;51.676;5.808;2022-09-21T16:25:02;20.10;50.10
62583;DHT22;48641;51.676;5.808;2022-09-21T16:27:52;20.10;50.20
62583;DHT22;48641;51.676;5.808;2022-09-21T16:30:42;20.10;50.20
62583;DHT22;48641;51.676;5.808;2022-09-21T16:36:34;20.10;50.30
62583;DHT22;48641;51.676;5.808;2022-09-21T16:39:01;20.10;50.60
62583;DHT22;48641;51.676;5.808;2022-09-21T16:41:47;20.10;50.70
62583;DHT22;48641;51.676;5.808;2022-09-21T16:44:20;20.10;50.70
62583;DHT22;48641;51.676;5.808;2022-09-21T16:46:58;20.00;50.90
62583;DHT22;48641;51.676;5.808;2022-09-21T16:49:31;20.00;51.00
62583;DHT22;48641;51.676;5.808;2022-09-21T16:52:00;20.00;51.10
62583;DHT22;48641;51.676;5.808;2022-09-21T16:54:26;20.00;51.10
62583;DHT22;48641;51.676;5.808;2022-09-21T16:56:53;20.10;51.20
62583;DHT22;48641;51.676;5.808;2022-09-21T16:59:20;20.10;51.20
62583;DHT22;48641;51.676;5.808;2022-09-21T17:01:51;20.10;51.10
62583;DHT22;48641;51.676;5.808;2022-09-21T17:04:18;20.20;51.20
62583;DHT22;48641;51.676;5.808;2022-09-21T17:06:45;20.20;51.10
62583;DHT22;48641;51.676;5.808;2022-09-21T17:09:19;20.30;51.20
62583;DHT22;48641;51.676;5.808;2022-09-21T17:11:46;20.30;51.20
62583;DHT22;48641;51.676;5.808;2022-09-21T17:14:13;20.30;51.30
62583;DHT22;48641;51.676;5.808;2022-09-21T17:16:46;20.30;51.10
62583;DHT22;48641;51.676;5.808;2022-09-21T17:19:12;20.30;51.10
62583;DHT22;48641;51.676;5.808;2022-09-21T17:21:38;20.30;51.10
62583;DHT22;48641;51.676;5.808;2022-09-21T17:24:03;20.40;51.10
62583;DHT22;48641;51.676;5.808;2022-09-21T17:26:29;20.40;51.10
62583;DHT22;48641;51.676;5.808;2022-09-21T17:28:56;20.40;51.10
62583;DHT22;48641;51.676;5.808;2022-09-21T17:31:23;20.50;51.10
62583;DHT22;48641;51.676;5.808;2022-09-21T17:33:48;20.50;51.10
62583;DHT22;48641;51.676;5.808;2022-09-21T17:36:16;20.50;51.10
62583;DHT22;48641;51.676;5.808;2022-09-21T17:38:43;20.50;51.10
62583;DHT22;48641;51.676;5.808;2022-09-21T17:41:24;20.50;51.10
62583;DHT22;48641;51.676;5.808;2022-09-21T17:44:12;20.60;51.10
62583;DHT22;48641;51.676;5.808;2022-09-21T17:49:11;20.60;51.30
62583;DHT22;48641;51.676;5.808;2022-09-21T17:51:36;20.60;51.30
62583;DHT22;48641;51.676;5.808;2022-09-21T17:54:21;20.70;51.30
62583;DHT22;48641;51.676;5.808;2022-09-21T17:57:03;20.70;51.30
62583;DHT22;48641;51.676;5.808;2022-09-21T17:59:32;20.70;51.20
62583;DHT22;48641;51.676;5.808;2022-09-21T18:01:59;20.80;51.30
62583;DHT22;48641;51.676;5.808;2022-09-21T18:04:27;20.80;51.30
62583;DHT22;48641;51.676;5.808;2022-09-21T18:06:54;20.80;51.20
62583;DHT22;48641;51.676;5.808;2022-09-21T18:09:19;20.80;51.20
62583;DHT22;48641;51.676;5.808;2022-09-21T18:12:21;20.80;51.10
62583;DHT22;48641;51.676;5.808;2022-09-21T18:15:11;20.90;51.00
62583;DHT22;48641;51.676;5.808;2022-09-21T18:17:51;20.90;51.20
62583;DHT22;48641;51.676;5.808;2022-09-21T18:23:21;20.90;51.20
62583;DHT22;48641;51.676;5.808;2022-09-21T18:25:53;20.90;51.20
62583;DHT22;48641;51.676;5.808;2022-09-21T18:33:49;21.00;51.20
62583;DHT22;48641;51.676;5.808;2022-09-21T18:36:31;21.00;51.40
62583;DHT22;48641;51.676;5.808;2022-09-21T18:39:42;21.00;51.30
62583;DHT22;48641;51.676;5.808;2022-09-21T18:45:12;21.00;51.20
62583;DHT22;48641;51.676;5.808;2022-09-21T18:50:37;21.10;51.20
62583;DHT22;48641;51.676;5.808;2022-09-21T18:55:50;21.00;51.20
62583;DHT22;48641;51.676;5.808;2022-09-21T18:58:16;21.00;51.40
62583;DHT22;48641;51.676;5.808;2022-09-21T19:00:44;21.00;51.30
62583;DHT22;48641;51.676;5.808;2022-09-21T19:03:12;21.00;51.20
62583;DHT22;48641;51.676;5.808;2022-09-21T19:05:44;21.10;51.20
62583;DHT22;48641;51.676;5.808;2022-09-21T19:11:03;21.10;51.10
62583;DHT22;48641;51.676;5.808;2022-09-21T19:13:46;21.10;51.10
62583;DHT22;48641;51.676;5.808;2022-09-21T19:16:31;21.10;51.10
62583;DHT22;48641;51.676;5.808;2022-09-21T19:19:04;21.10;51.10